Time;durP1;ratioP1;P1;durP2;ratioP2;P2;SDS_P1;SDS_P2;PMS_P1;PMS_P2;Temp;Humidity;BMP_temperature;BMP_pressure;BME280_temperature;BME280_humidity;BME280_pressure;Samples;Min_cycle;Max_cycle;Signal;HPM_P1;HPM_P2
2022/02/02 00:00:49;;;;;;;9.17;2.07;;;10.90;99.90;;;;;;4881431;29;20177;-82
2022/02/02 00:03:17;;;;;;;7.70;1.60;;;10.90;99.90;;;;;;4881770;29;20183;-83
2022/02/02 00:08:19;;;;;;;6.27;1.80;;;10.80;99.90;;;;;;4879955;29;20174;-83
2022/02/02 00:13:26;;;;;;;9.13;2.00;;;10.50;99.90;;;;;;4879731;29;20186;-83
2022/02/02 00:16:02;;;;;;;10.80;1.90;;;10.50;99.90;;;;;;4872732;29;20205;-83
2022/02/02 00:21:12;;;;;;;12.93;2.23;;;10.70;99.90;;;;;;4898377;29;20173;-83
2022/02/02 00:23:43;;;;;;;5.33;1.90;;;10.80;99.90;;;;;;4881395;29;20271;-83
2022/02/02 00:26:17;;;;;;;9.37;2.17;;;10.80;99.90;;;;;;4868857;29;20600;-83
2022/02/02 00:28:48;;;;;;;8.77;2.03;;;10.80;99.90;;;;;;4862878;29;20177;-83
2022/02/02 00:31:20;;;;;;;7.60;1.93;;;10.80;99.90;;;;;;4862373;29;20240;-83
2022/02/02 00:33:52;;;;;;;8.67;1.77;;;10.70;99.90;;;;;;4879561;29;20196;-83
2022/02/02 00:36:22;;;;;;;9.70;1.67;;;10.80;99.90;;;;;;4874208;29;20623;-83
2022/02/02 00:38:48;;;;;;;9.40;2.10;;;10.80;99.90;;;;;;4881287;29;20185;-83
2022/02/02 00:41:14;;;;;;;9.73;2.13;;;10.70;99.90;;;;;;4868564;29;20552;-83
2022/02/02 00:43:41;;;;;;;5.50;1.83;;;10.70;99.90;;;;;;4891779;29;20623;-83
2022/02/02 00:46:07;;;;;;;6.40;2.13;;;10.70;99.90;;;;;;4880740;29;20314;-83
2022/02/02 00:48:34;;;;;;;8.80;1.93;;;10.70;99.90;;;;;;4879253;29;20669;-83
2022/02/02 00:51:00;;;;;;;9.00;1.67;;;10.80;99.90;;;;;;4878697;29;20197;-83
2022/02/02 00:53:25;;;;;;;8.83;2.10;;;11.00;99.90;;;;;;4862683;29;20212;-83
2022/02/02 00:55:53;;;;;;;10.60;2.27;;;10.80;99.90;;;;;;4862473;29;20182;-83
2022/02/02 00:58:21;;;;;;;12.10;2.27;;;10.80;99.90;;;;;;4862640;29;20166;-83
2022/02/02 01:00:47;;;;;;;6.13;1.93;;;10.70;99.90;;;;;;4894500;29;20197;-83
2022/02/02 01:03:13;;;;;;;8.50;2.17;;;10.60;99.90;;;;;;4862756;29;20535;-83
2022/02/02 01:05:38;;;;;;;7.00;1.80;;;10.50;99.90;;;;;;4862098;29;20197;-83
2022/02/02 01:11:12;;;;;;;10.13;2.63;;;10.50;99.90;;;;;;4880056;29;20261;-83
2022/02/02 01:21:56;;;;;;;8.80;2.00;;;10.60;99.90;;;;;;4892757;29;20180;-82
2022/02/02 01:29:48;;;;;;;15.83;2.37;;;10.50;99.90;;;;;;4878977;29;20173;-82
2022/02/02 01:32:14;;;;;;;14.93;2.50;;;10.40;99.90;;;;;;4864372;29;20174;-82
2022/02/02 01:34:40;;;;;;;10.00;2.13;;;10.50;99.90;;;;;;4862274;29;20184;-82
2022/02/02 01:37:05;;;;;;;10.17;1.77;;;10.50;99.90;;;;;;4862717;29;20179;-83
2022/02/02 01:39:32;;;;;;;8.57;2.00;;;10.60;99.90;;;;;;4865874;29;20181;-83
2022/02/02 01:42:00;;;;;;;10.07;2.13;;;10.60;99.90;;;;;;4866659;29;20190;-82
2022/02/02 01:44:41;;;;;;;7.53;1.70;;;10.50;99.90;;;;;;4881392;29;20657;-82
2022/02/02 01:47:08;;;;;;;7.47;2.40;;;10.60;99.90;;;;;;4884328;29;20554;-83
2022/02/02 01:54:55;;;;;;;9.67;2.10;;;10.70;99.90;;;;;;4883948;29;20174;-83
2022/02/02 02:00:08;;;;;;;9.73;2.00;;;10.60;99.90;;;;;;4882459;29;20172;-82
2022/02/02 02:02:35;;;;;;;11.57;2.30;;;10.60;99.90;;;;;;4865178;29;20174;-83
2022/02/02 02:05:02;;;;;;;6.27;2.27;;;10.40;99.90;;;;;;4882999;29;20672;-82
2022/02/02 02:07:28;;;;;;;12.73;2.23;;;10.20;99.90;;;;;;4883981;29;20185;-83
2022/02/02 02:09:54;;;;;;;11.17;2.30;;;10.20;99.90;;;;;;4884091;29;20179;-83
2022/02/02 02:12:20;;;;;;;12.00;2.00;;;10.30;99.90;;;;;;4883372;29;20177;-82
2022/02/02 02:14:59;;;;;;;10.67;2.50;;;10.30;99.90;;;;;;4868564;29;20166;-82
2022/02/02 02:17:26;;;;;;;10.90;2.40;;;10.40;99.90;;;;;;4864886;29;20211;-82
2022/02/02 02:19:52;;;;;;;9.40;2.37;;;10.50;99.90;;;;;;4865127;29;20170;-83
2022/02/02 02:22:24;;;;;;;6.50;1.80;;;10.60;99.90;;;;;;4864803;29;20181;-83
2022/02/02 02:24:51;;;;;;;11.07;2.17;;;10.60;99.90;;;;;;4878971;29;20229;-82
2022/02/02 02:27:19;;;;;;;8.17;2.00;;;10.50;99.90;;;;;;4883157;29;20197;-82
2022/02/02 02:29:58;;;;;;;9.83;1.83;;;10.50;99.90;;;;;;4883682;29;20166;-82
2022/02/02 02:56:16;;;;;;;11.47;2.47;;;10.30;99.90;;;;;;4898273;29;20679;-83
2022/02/02 03:30:59;;;;;;;10.13;2.60;;;10.20;99.90;;;;;;4895071;29;20594;-83
2022/02/02 03:55:49;;;;;;;10.80;2.70;;;9.90;99.90;;;;;;4841000;29;20641;-82
2022/02/02 03:59:07;;;;;;;11.50;2.03;;;9.90;99.90;;;;;;4858718;29;20612;-83
2022/02/02 04:06:23;;;;;;;10.93;2.47;;;10.00;99.90;;;;;;4880014;29;20220;-82
2022/02/02 04:08:49;;;;;;;13.07;2.23;;;10.00;99.90;;;;;;4879785;29;20508;-83
2022/02/02 04:11:26;;;;;;;10.03;1.90;;;9.90;99.90;;;;;;4862939;29;20259;-83
2022/02/02 04:51:43;;;;;;;5.10;1.70;;;10.20;99.90;;;;;;4897854;29;20627;-82
2022/02/02 04:59:34;;;;;;;6.97;2.00;;;10.30;99.90;;;;;;4879383;29;20260;-82
2022/02/02 05:07:23;;;;;;;6.63;2.03;;;10.40;99.90;;;;;;4896187;29;20223;-82
2022/02/02 05:15:47;;;;;;;12.20;2.43;;;10.50;99.90;;;;;;4897737;29;20268;-83
2022/02/02 05:50:25;;;;;;;9.63;1.93;;;10.70;99.90;;;;;;4879201;29;20196;-83
2022/02/02 05:52:51;;;;;;;6.70;1.93;;;10.60;99.90;;;;;;4880426;29;20232;-83
2022/02/02 05:55:16;;;;;;;6.47;2.57;;;10.60;99.90;;;;;;4880607;29;20581;-83
2022/02/02 05:57:45;;;;;;;6.60;1.90;;;10.60;99.90;;;;;;4880124;29;20169;-83
2022/02/02 06:00:13;;;;;;;5.23;1.93;;;10.40;99.90;;;;;;4878693;29;20165;-82
2022/02/02 06:02:39;;;;;;;8.10;1.87;;;10.40;99.90;;;;;;4880300;29;20688;-83
2022/02/02 06:05:08;;;;;;;5.97;2.10;;;10.40;99.90;;;;;;4880191;29;20177;-83
2022/02/02 06:07:41;;;;;;;6.90;1.80;;;10.40;99.90;;;;;;4880252;29;20180;-83
2022/02/02 06:10:09;;;;;;;12.43;2.40;;;10.40;99.90;;;;;;4879447;29;20189;-82
2022/02/02 06:12:35;;;;;;;5.27;2.00;;;10.40;99.90;;;;;;4877798;29;20269;-83
2022/02/02 06:15:09;;;;;;;8.43;2.20;;;10.50;99.90;;;;;;4861674;29;20206;-83
2022/02/02 06:17:39;;;;;;;9.43;1.90;;;10.50;99.90;;;;;;4861385;29;20229;-83
2022/02/02 06:20:06;;;;;;;7.63;2.00;;;10.40;99.90;;;;;;4873578;29;20170;-83
2022/02/02 06:22:38;;;;;;;5.73;1.97;;;10.30;99.90;;;;;;4879383;29;20205;-83
2022/02/02 06:25:20;;;;;;;12.50;2.23;;;10.40;99.90;;;;;;4883856;29;20178;-82
2022/02/02 06:27:58;;;;;;;7.63;2.50;;;10.20;99.90;;;;;;4883732;29;20177;-83
2022/02/02 06:30:25;;;;;;;6.27;1.67;;;10.20;99.90;;;;;;4883706;29;20544;-82
2022/02/02 06:32:57;;;;;;;9.30;1.93;;;10.20;99.90;;;;;;4883615;29;20173;-83
2022/02/02 06:35:22;;;;;;;6.57;1.90;;;10.30;99.90;;;;;;4900478;29;20186;-82
2022/02/02 06:37:49;;;;;;;4.37;2.20;;;10.20;99.90;;;;;;4900548;29;20654;-83
2022/02/02 06:40:18;;;;;;;8.53;2.43;;;10.20;99.90;;;;;;4883704;29;20201;-82
2022/02/02 06:42:44;;;;;;;8.90;2.30;;;10.30;99.90;;;;;;4883789;29;20179;-84
2022/02/02 07:01:37;;;;;;;12.10;2.47;;;10.30;99.90;;;;;;5054779;23;20476;-83
2022/02/02 07:04:22;;;;;;;10.87;2.50;;;10.40;99.90;;;;;;4937589;29;20160;-82
2022/02/02 07:07:33;;;;;;;9.80;3.07;;;10.50;99.90;;;;;;4931657;29;20219;-82
2022/02/02 07:12:43;;;;;;;9.67;3.20;;;10.50;99.90;;;;;;4918236;29;20168;-83
2022/02/02 07:15:20;;;;;;;10.13;4.37;;;10.50;99.90;;;;;;4918175;29;20309;-82
2022/02/02 07:18:09;;;;;;;10.67;3.07;;;10.50;99.90;;;;;;4919117;29;20184;-82
2022/02/02 07:23:46;;;;;;;10.07;3.23;;;10.70;99.90;;;;;;4918240;29;20175;-82
2022/02/02 07:39:44;;;;;;;17.77;3.70;;;10.50;99.90;;;;;;4973674;28;20691;-95
2022/02/02 07:42:11;;;;;;;12.50;3.63;;;10.40;99.90;;;;;;4959115;28;20185;-95
2022/02/02 07:44:40;;;;;;;11.50;3.47;;;10.50;99.90;;;;;;4958567;28;20178;-94
2022/02/02 07:47:10;;;;;;;11.73;3.77;;;10.50;99.90;;;;;;4958133;28;20218;-94
2022/02/02 07:49:39;;;;;;;16.03;4.30;;;10.50;99.90;;;;;;4958648;28;20178;-95
2022/02/02 07:52:05;;;;;;;13.13;3.57;;;10.50;99.90;;;;;;4958401;28;20635;-95
2022/02/02 07:54:37;;;;;;;21.53;4.73;;;10.50;99.90;;;;;;4958375;28;20198;-95
2022/02/02 07:57:13;;;;;;;13.57;3.43;;;10.50;99.90;;;;;;4958704;28;20190;-95
2022/02/02 08:02:09;;;;;;;11.33;3.23;;;10.60;99.90;;;;;;4974930;28;20635;-93
2022/02/02 08:04:36;;;;;;;12.47;3.20;;;10.60;99.90;;;;;;4957799;28;20174;-94
2022/02/02 08:07:02;;;;;;;13.73;4.10;;;10.50;99.90;;;;;;4948035;28;20224;-96
2022/02/02 08:27:23;;;;;;;10.40;2.90;;;10.80;99.90;;;;;;5892755;23;20309;-92
2022/02/02 08:29:49;;;;;;;13.07;3.43;;;10.90;99.90;;;;;;4983830;28;20189;-95
2022/02/02 08:32:43;;;;;;;8.00;2.67;;;10.90;99.90;;;;;;4994099;28;20161;-86
2022/02/02 08:35:34;;;;;;;9.83;2.67;;;10.90;99.90;;;;;;5013250;28;20169;-87
2022/02/02 08:41:23;;;;;;;13.60;3.00;;;10.90;99.90;;;;;;5019174;28;20571;-86
2022/02/02 08:44:39;;;;;;;10.63;3.23;;;10.80;99.90;;;;;;5002542;28;20225;-85
2022/02/02 08:47:37;;;;;;;9.23;2.43;;;10.70;99.90;;;;;;5002233;28;20213;-85
2022/02/02 08:50:04;;;;;;;14.47;4.20;;;10.60;99.90;;;;;;5002621;28;20154;-86
2022/02/02 08:52:56;;;;;;;9.60;2.87;;;10.70;99.90;;;;;;4998705;28;20170;-85
2022/02/02 09:01:32;;;;;;;10.50;2.97;;;10.60;99.90;;;;;;4999441;28;20174;-86
2022/02/02 09:06:59;;;;;;;20.17;3.30;;;10.40;99.90;;;;;;4999430;28;20229;-85
2022/02/02 09:09:44;;;;;;;13.30;2.53;;;10.60;99.90;;;;;;4982458;28;20155;-85
2022/02/02 09:34:07;;;;;;;18.17;3.83;;;10.90;99.90;;;;;;4979649;28;20163;-85
2022/02/02 09:36:46;;;;;;;12.80;4.17;;;10.80;99.90;;;;;;4963177;29;20236;-85
2022/02/02 09:39:39;;;;;;;14.20;3.87;;;10.80;99.90;;;;;;4979565;28;20163;-85
2022/02/02 09:42:19;;;;;;;15.87;4.10;;;10.90;99.90;;;;;;4962779;29;20171;-85
2022/02/02 09:44:51;;;;;;;14.80;3.90;;;11.00;99.90;;;;;;4963244;29;20151;-84
2022/02/02 09:49:58;;;;;;;14.77;3.50;;;11.00;99.90;;;;;;4979668;28;20235;-85
2022/02/02 09:52:35;;;;;;;11.20;3.70;;;10.90;99.90;;;;;;4962989;28;20179;-85
2022/02/02 09:56:01;;;;;;;10.70;3.67;;;10.90;99.90;;;;;;4963145;28;20181;-85
2022/02/02 10:04:44;;;;;;;16.37;3.83;;;10.90;99.90;;;;;;4983339;28;20167;-86
2022/02/02 10:15:28;;;;;;;8.27;2.67;;;11.10;99.90;;;;;;4983091;28;20152;-87
2022/02/02 10:18:25;;;;;;;13.17;3.50;;;11.20;99.90;;;;;;4966455;28;20183;-86
2022/02/02 10:21:32;;;;;;;12.17;2.93;;;11.20;99.90;;;;;;4981899;28;20183;-85
2022/02/02 10:23:58;;;;;;;10.67;2.20;;;11.30;99.90;;;;;;4965682;28;20198;-86
2022/02/02 10:26:27;;;;;;;12.83;3.03;;;11.30;99.90;;;;;;4961844;29;20220;-85
2022/02/02 10:29:07;;;;;;;7.87;2.23;;;11.30;99.90;;;;;;4942535;28;20179;-87
2022/02/02 10:31:49;;;;;;;8.73;2.50;;;11.40;99.90;;;;;;4947070;28;20175;-88
2022/02/02 10:34:22;;;;;;;9.07;2.30;;;11.50;99.90;;;;;;4963473;28;20197;-87
2022/02/02 10:37:34;;;;;;;10.83;2.60;;;11.50;99.90;;;;;;4972544;23;20203;-87
2022/02/02 10:40:00;;;;;;;7.63;2.07;;;11.50;99.90;;;;;;4964325;28;20878;-86
2022/02/02 10:42:41;;;;;;;5.60;1.90;;;11.50;99.90;;;;;;4982901;28;20155;-94
2022/02/02 10:45:50;;;;;;;10.23;2.43;;;11.50;99.90;;;;;;4982500;28;20154;-85
2022/02/02 10:49:15;;;;;;;8.97;2.83;;;11.50;99.90;;;;;;4982377;28;20160;-84
2022/02/02 10:53:01;;;;;;;4.90;2.20;;;11.60;99.90;;;;;;4982360;28;20194;-84
2022/02/02 11:09:20;;;;;;;8.97;2.20;;;11.80;99.90;;;;;;4971754;23;20211;-85
2022/02/02 11:12:32;;;;;;;8.83;2.87;;;11.90;99.90;;;;;;4965110;28;20219;-86
2022/02/02 11:15:01;;;;;;;8.47;2.40;;;11.80;99.90;;;;;;4965183;28;20217;-85
2022/02/02 11:17:35;;;;;;;10.47;1.87;;;11.70;99.90;;;;;;4981439;28;20183;-90
2022/02/02 11:20:04;;;;;;;9.37;2.10;;;11.70;99.90;;;;;;4965007;28;20206;-85
2022/02/02 11:22:37;;;;;;;5.57;1.70;;;11.80;99.90;;;;;;4964932;28;20164;-85
2022/02/02 11:25:33;;;;;;;6.83;2.33;;;11.70;99.90;;;;;;5141641;23;20218;-84
2022/02/02 11:30:46;;;;;;;7.07;2.63;;;11.70;99.90;;;;;;4979665;28;20199;-83
2022/02/02 11:33:15;;;;;;;10.30;2.43;;;11.70;99.90;;;;;;4965209;28;20167;-85
2022/02/02 11:38:28;;;;;;;10.57;3.23;;;11.70;99.90;;;;;;4981736;28;20165;-86
2022/02/02 11:44:11;;;;;;;5.33;2.53;;;11.90;99.90;;;;;;4981623;28;20160;-85
2022/02/02 11:47:06;;;;;;;6.10;2.30;;;11.70;99.90;;;;;;4981358;28;20199;-83
2022/02/02 11:50:02;;;;;;;7.80;2.90;;;11.60;99.90;;;;;;4965023;28;20165;-84
2022/02/02 11:52:38;;;;;;;6.07;2.60;;;11.70;99.90;;;;;;4964650;28;20159;-86
2022/02/02 11:55:10;;;;;;;5.23;2.67;;;11.70;99.90;;;;;;4981115;28;20164;-85
2022/02/02 11:58:26;;;;;;;5.57;2.70;;;11.70;99.90;;;;;;4981249;28;20165;-85
2022/02/02 12:01:17;;;;;;;4.77;2.37;;;11.50;99.90;;;;;;4980989;28;20163;-86
2022/02/02 12:07:24;;;;;;;5.77;2.70;;;11.90;99.90;;;;;;4981132;28;20175;-85
2022/02/02 12:10:04;;;;;;;4.07;2.37;;;12.10;99.90;;;;;;4964312;28;20250;-86
2022/02/02 12:58:46;;;;;;;8.47;6.43;;;11.20;99.90;;;;;;4980441;28;20190;-84
2022/02/02 13:01:48;;;;;;;10.43;7.50;;;11.20;99.90;;;;;;4978806;28;20170;-85
2022/02/02 13:04:34;;;;;;;9.03;7.37;;;11.20;99.90;;;;;;4978789;28;20211;-87
2022/02/02 13:07:11;;;;;;;12.87;8.67;;;11.30;99.90;;;;;;4980027;28;20207;-83
2022/02/02 13:09:47;;;;;;;13.10;7.70;;;11.20;99.90;;;;;;4963570;28;20171;-84
2022/02/02 13:13:02;;;;;;;9.17;6.70;;;11.40;99.90;;;;;;4963537;29;20157;-84
2022/02/02 13:23:37;;;;;;;13.50;8.30;;;11.70;99.90;;;;;;4979678;28;20243;-86
2022/02/02 13:26:11;;;;;;;11.83;9.33;;;11.70;99.90;;;;;;4977027;28;20262;-89
2022/02/02 13:28:49;;;;;;;12.77;9.53;;;11.40;99.90;;;;;;4958873;28;20159;-85
2022/02/02 13:31:27;;;;;;;14.57;10.50;;;11.40;99.90;;;;;;4962129;28;20171;-85
2022/02/02 13:34:37;;;;;;;17.07;10.23;;;11.40;99.90;;;;;;4963819;28;20198;-85
2022/02/02 13:38:06;;;;;;;18.17;11.57;;;11.50;99.90;;;;;;4958595;29;20175;-89
2022/02/02 13:51:28;;;;;;;17.03;11.70;;;12.20;99.90;;;;;;4983117;28;20184;-86
2022/02/02 14:05:02;;;;;;;12.73;8.43;;;12.20;99.90;;;;;;4983131;28;20246;-85
2022/02/02 14:32:49;;;;;;;11.93;7.87;;;12.10;99.90;;;;;;4979372;29;20178;-94
2022/02/02 14:35:17;;;;;;;10.97;7.70;;;12.10;99.90;;;;;;4962060;28;20172;-93
2022/02/02 14:37:43;;;;;;;10.00;8.10;;;12.00;99.90;;;;;;4963434;29;20210;-88
2022/02/02 14:40:18;;;;;;;13.47;8.40;;;12.00;99.90;;;;;;4964273;29;20170;-91
2022/02/02 14:42:47;;;;;;;11.53;7.73;;;12.10;99.90;;;;;;4963969;28;20158;-93
2022/02/02 14:45:16;;;;;;;11.40;8.80;;;12.10;99.90;;;;;;4979179;28;20147;-93
2022/02/02 14:47:51;;;;;;;11.27;8.90;;;12.10;99.90;;;;;;4977896;29;20174;-95
2022/02/02 14:50:29;;;;;;;13.33;9.60;;;12.20;99.90;;;;;;4953007;29;20202;-95
2022/02/02 15:28:41;;;;;;;10.47;6.37;;;12.10;99.90;;;;;;4979277;28;20211;-84
2022/02/02 15:31:15;;;;;;;8.57;5.97;;;11.80;99.90;;;;;;4969144;23;20290;-83
2022/02/02 15:34:13;;;;;;;9.30;6.20;;;11.70;99.90;;;;;;4945991;28;20220;-85
2022/02/02 15:37:12;;;;;;;9.20;5.10;;;11.60;99.90;;;;;;4961634;28;20187;-88
2022/02/02 15:39:32;;;;;;;7.87;5.20;;;11.50;99.90;;;;;;4957372;29;20176;-95
2022/02/02 15:54:44;;;;;;;9.87;5.73;;;11.80;99.90;;;;;;4944037;29;20235;-93
2022/02/02 15:58:33;;;;;;;7.83;5.60;;;11.40;99.90;;;;;;4935435;29;20199;-87
2022/02/02 16:03:55;;;;;;;9.20;6.10;;;11.40;99.90;;;;;;4961514;28;20175;-85
2022/02/02 16:06:28;;;;;;;6.83;4.83;;;11.50;99.90;;;;;;4961650;28;20222;-84
2022/02/02 16:11:53;;;;;;;7.30;5.67;;;11.50;99.90;;;;;;4961569;28;20180;-83
2022/02/02 16:14:26;;;;;;;9.00;6.20;;;11.50;99.90;;;;;;4961642;28;20168;-83
2022/02/02 16:17:44;;;;;;;8.73;5.77;;;11.40;99.90;;;;;;4961508;28;20159;-84
2022/02/02 16:37:06;;;;;;;16.77;9.83;;;11.60;99.90;;;;;;4941578;28;20191;-84
2022/02/02 16:40:19;;;;;;;18.70;11.33;;;11.40;99.90;;;;;;4941994;28;20164;-83
2022/02/02 16:43:22;;;;;;;18.97;12.40;;;11.40;99.90;;;;;;4941682;28;20184;-83
2022/02/02 16:46:10;;;;;;;20.50;11.07;;;11.30;99.90;;;;;;4941881;28;20200;-83
2022/02/02 16:48:59;;;;;;;21.70;12.90;;;11.20;99.90;;;;;;4924850;29;20168;-86
2022/02/02 16:51:27;;;;;;;17.93;11.67;;;11.10;99.90;;;;;;4925223;29;20156;-83
2022/02/02 16:53:55;;;;;;;17.67;11.43;;;11.10;99.90;;;;;;4942087;28;20169;-84
2022/02/02 16:56:59;;;;;;;18.77;11.93;;;11.10;99.90;;;;;;4941636;29;20180;-83
2022/02/02 17:32:47;;;;;;;28.10;15.50;;;11.30;99.90;;;;;;4941146;28;20220;-85
2022/02/02 17:38:03;;;;;;;30.50;22.17;;;11.30;99.90;;;;;;4940640;29;20176;-85
2022/02/02 17:57:45;;;;;;;22.83;15.60;;;11.10;99.90;;;;;;4916835;29;20227;-93
2022/02/02 18:20:59;;;;;;;24.17;17.00;;;11.00;99.90;;;;;;4920506;29;20279;-93
2022/02/02 18:26:17;;;;;;;25.37;18.00;;;11.00;99.90;;;;;;4920593;29;20598;-91
2022/02/02 18:29:42;;;;;;;21.63;14.50;;;11.10;99.90;;;;;;4924175;29;20575;-94
2022/02/02 18:34:25;;;;;;;20.97;13.23;;;11.00;99.90;;;;;;4944495;28;20175;-84
2022/02/02 18:43:16;;;;;;;18.80;12.40;;;10.90;99.90;;;;;;4944324;28;20167;-84
2022/02/02 18:58:41;;;;;;;19.63;12.10;;;11.10;99.90;;;;;;4944189;28;20185;-82
2022/02/02 19:31:39;;;;;;;15.60;11.07;;;11.20;99.90;;;;;;4981716;28;20178;-85
2022/02/02 19:55:14;;;;;;;20.50;12.23;;;11.30;99.90;;;;;;4981423;28;20159;-84
2022/02/02 20:03:37;;;;;;;30.83;19.43;;;11.20;99.90;;;;;;5000719;28;20189;-84
2022/02/02 20:08:41;;;;;;;30.43;17.33;;;11.30;99.90;;;;;;5000412;28;20178;-85
2022/02/02 20:11:50;;;;;;;27.10;17.50;;;11.30;99.90;;;;;;4996033;28;20163;-86
2022/02/02 20:14:34;;;;;;;28.30;16.73;;;11.20;99.90;;;;;;4999885;28;20175;-83
2022/02/02 20:17:16;;;;;;;25.13;17.67;;;11.30;99.90;;;;;;5000464;28;20139;-84
2022/02/02 20:20:23;;;;;;;29.20;18.53;;;11.30;99.90;;;;;;4999745;28;20166;-84
2022/02/02 20:23:02;;;;;;;28.87;17.90;;;11.20;99.90;;;;;;4983601;28;20155;-84
2022/02/02 20:26:04;;;;;;;27.73;18.50;;;11.10;99.90;;;;;;5000000;28;20206;-88
2022/02/02 20:29:11;;;;;;;52.83;25.27;;;10.90;99.90;;;;;;4985203;28;20221;-84
2022/02/02 20:31:49;;;;;;;27.20;18.57;;;10.90;99.90;;;;;;4999987;28;20171;-84
2022/02/02 20:34:15;;;;;;;31.03;19.03;;;10.80;99.90;;;;;;4993023;28;20185;-96
2022/02/02 20:36:47;;;;;;;32.43;20.97;;;11.00;99.90;;;;;;4980492;28;20163;-86
2022/02/02 20:39:34;;;;;;;33.97;21.47;;;11.20;99.90;;;;;;4983268;28;20174;-84
2022/02/02 20:42:03;;;;;;;111.43;70.43;;;11.20;99.90;;;;;;4982922;28;20163;-84
2022/02/02 20:44:48;;;;;;;143.27;78.03;;;11.10;99.90;;;;;;4983290;28;20226;-83
2022/02/02 21:01:30;;;;;;;38.10;23.17;;;11.00;99.90;;;;;;4959179;28;20203;-96
2022/02/02 21:06:19;;;;;;;38.03;23.87;;;11.10;99.90;;;;;;4970489;29;20218;-84
2022/02/02 21:09:07;;;;;;;41.57;24.30;;;11.20;99.90;;;;;;4961874;28;20186;-84
2022/02/02 21:13:38;;;;;;;38.70;25.10;;;11.20;99.90;;;;;;4962410;28;20264;-84
2022/02/02 21:15:00;;;;;;;37.50;23.37;;;11.20;99.90;;;;;;4978752;28;20238;-84
2022/02/02 21:17:51;;;;;;;37.63;23.10;;;11.20;99.90;;;;;;4979091;28;20167;-84
2022/02/02 21:23:12;;;;;;;37.70;22.90;;;11.20;99.90;;;;;;4976916;29;20168;-84
2022/02/02 21:25:59;;;;;;;40.23;22.60;;;11.00;99.90;;;;;;4963189;28;20187;-84
2022/02/02 21:28:28;;;;;;;41.83;23.40;;;11.00;99.90;;;;;;4963369;28;20185;-83
2022/02/02 21:30:53;;;;;;;39.30;22.77;;;10.90;99.90;;;;;;4950931;28;20182;-84
2022/02/02 21:33:19;;;;;;;37.43;21.10;;;10.90;99.90;;;;;;4960818;28;20187;-83
2022/02/02 21:35:47;;;;;;;37.77;22.60;;;10.80;99.90;;;;;;4944445;28;20163;-84
2022/02/02 21:38:21;;;;;;;38.50;22.70;;;10.80;99.90;;;;;;4960369;28;20176;-84
2022/02/02 21:40:52;;;;;;;40.57;22.40;;;10.80;99.90;;;;;;4960580;28;20159;-84
2022/02/02 21:43:18;;;;;;;35.20;22.17;;;10.80;99.90;;;;;;4944200;28;20187;-84
2022/02/02 21:45:44;;;;;;;38.10;23.27;;;10.70;99.90;;;;;;4934963;29;20207;-92
2022/02/02 21:48:10;;;;;;;33.97;22.87;;;10.80;99.90;;;;;;4971480;28;20237;-85
2022/02/02 21:50:49;;;;;;;36.97;23.03;;;10.80;99.90;;;;;;4963417;28;20159;-84
2022/02/02 21:53:15;;;;;;;38.70;23.03;;;10.80;99.90;;;;;;4962998;28;20167;-85
2022/02/02 21:56:10;;;;;;;40.83;24.13;;;10.90;99.90;;;;;;4966090;28;20161;-83
2022/02/02 21:58:50;;;;;;;38.93;22.20;;;10.90;99.90;;;;;;4964572;28;20180;-85
2022/02/02 22:01:16;;;;;;;46.77;28.07;;;10.90;99.90;;;;;;4958873;29;20604;-85
2022/02/02 22:03:42;;;;;;;33.50;22.10;;;11.00;99.90;;;;;;4940433;29;20254;-83
2022/02/02 22:06:08;;;;;;;39.70;22.43;;;10.80;99.90;;;;;;4940444;29;20353;-83
2022/02/02 22:08:33;;;;;;;41.20;26.50;;;10.90;99.90;;;;;;4940461;29;20179;-83
2022/02/02 22:10:59;;;;;;;30.27;19.63;;;10.90;99.90;;;;;;4940546;29;20270;-83
2022/02/02 22:13:35;;;;;;;38.77;20.57;;;10.80;99.90;;;;;;4940264;29;20167;-83
2022/02/02 22:16:06;;;;;;;32.57;19.60;;;10.70;99.90;;;;;;4938766;29;20170;-83
2022/02/02 22:18:33;;;;;;;32.00;20.20;;;10.60;99.90;;;;;;4940677;29;20183;-83
2022/02/02 22:20:59;;;;;;;34.70;20.77;;;10.50;99.90;;;;;;4940443;29;20178;-83
2022/02/02 22:23:25;;;;;;;35.87;19.83;;;10.50;99.90;;;;;;4940415;29;20179;-83
2022/02/02 22:25:50;;;;;;;29.07;18.73;;;10.60;99.90;;;;;;4940499;29;20266;-82
2022/02/02 22:28:16;;;;;;;32.90;17.90;;;10.70;99.90;;;;;;4941107;29;20184;-83
2022/02/02 22:30:42;;;;;;;32.17;17.77;;;10.70;99.90;;;;;;4940608;29;20175;-82
2022/02/02 22:33:07;;;;;;;29.80;18.27;;;10.60;99.90;;;;;;4940670;28;20270;-82
2022/02/02 22:35:33;;;;;;;28.67;19.73;;;10.60;99.90;;;;;;4940208;29;20656;-84
2022/02/02 22:37:58;;;;;;;38.87;27.10;;;10.60;99.90;;;;;;4940250;29;20265;-82
2022/02/02 22:40:26;;;;;;;25.03;16.50;;;10.60;99.90;;;;;;4940743;29;20175;-83
2022/02/02 22:42:52;;;;;;;32.47;23.40;;;10.50;99.90;;;;;;4940499;29;20177;-83
2022/02/02 22:45:18;;;;;;;25.20;14.73;;;10.50;99.90;;;;;;4957348;29;20303;-82
2022/02/02 22:47:45;;;;;;;111.27;65.80;;;10.60;99.90;;;;;;4940267;29;20184;-83
2022/02/02 22:50:12;;;;;;;37.03;26.27;;;10.60;99.90;;;;;;4940308;29;20177;-84
2022/02/02 22:52:41;;;;;;;22.53;13.57;;;10.70;99.90;;;;;;4957564;29;20193;-83
2022/02/02 22:55:11;;;;;;;18.83;11.70;;;10.70;99.90;;;;;;4940256;29;20169;-83
2022/02/02 22:57:37;;;;;;;19.67;12.67;;;10.70;99.90;;;;;;4940467;29;20265;-83
2022/02/02 23:00:08;;;;;;;18.60;11.13;;;10.80;99.90;;;;;;4939721;29;20217;-83
2022/02/02 23:02:55;;;;;;;18.13;12.57;;;10.70;99.90;;;;;;4940066;29;20171;-83
2022/02/02 23:05:28;;;;;;;20.60;12.43;;;10.60;99.90;;;;;;4956597;28;20181;-83
2022/02/02 23:07:53;;;;;;;21.73;10.73;;;10.60;99.90;;;;;;4940177;29;20541;-83
2022/02/02 23:10:21;;;;;;;21.83;10.83;;;10.60;99.90;;;;;;4939704;29;20171;-82
2022/02/02 23:12:47;;;;;;;17.53;9.10;;;10.70;99.90;;;;;;4939660;29;20186;-82
2022/02/02 23:15:20;;;;;;;20.30;10.60;;;10.70;99.90;;;;;;4939922;29;20237;-83
2022/02/02 23:17:47;;;;;;;15.00;9.50;;;10.60;99.90;;;;;;4939244;29;20181;-83
2022/02/02 23:20:13;;;;;;;23.83;10.23;;;10.60;99.90;;;;;;4939639;29;20181;-83
2022/02/02 23:22:39;;;;;;;18.03;9.30;;;10.60;99.90;;;;;;4939971;29;20267;-84
2022/02/02 23:25:09;;;;;;;15.57;9.93;;;10.50;99.90;;;;;;4939727;29;20197;-83
2022/02/02 23:27:36;;;;;;;15.13;9.40;;;10.50;99.90;;;;;;4939279;29;20691;-83
2022/02/02 23:30:07;;;;;;;14.00;8.70;;;10.60;99.90;;;;;;4939383;29;20184;-83
2022/02/02 23:32:33;;;;;;;17.23;8.30;;;10.50;99.90;;;;;;4939605;29;20197;-82
2022/02/02 23:35:00;;;;;;;15.90;8.57;;;10.60;99.90;;;;;;4939055;29;20275;-83
2022/02/02 23:37:27;;;;;;;14.37;9.13;;;10.50;99.90;;;;;;4939339;29;20199;-83
2022/02/02 23:39:53;;;;;;;13.37;10.03;;;10.50;99.90;;;;;;4939229;29;20182;-83
2022/02/02 23:42:25;;;;;;;17.07;9.67;;;10.50;99.90;;;;;;4939153;29;20645;-82
2022/02/02 23:44:52;;;;;;;15.90;7.60;;;10.40;99.90;;;;;;4938907;29;20179;-82
2022/02/02 23:47:20;;;;;;;11.63;6.63;;;10.40;99.90;;;;;;4939181;29;20213;-83
2022/02/02 23:49:53;;;;;;;9.77;5.93;;;10.40;99.90;;;;;;4938887;29;20190;-82
2022/02/02 23:52:24;;;;;;;10.73;6.13;;;10.20;99.90;;;;;;4939003;29;20236;-82
2022/02/02 23:54:53;;;;;;;14.47;6.50;;;10.20;99.90;;;;;;4938476;29;20176;-83
2022/02/02 23:57:36;;;;;;;10.77;5.53;;;10.20;99.90;;;;;;4938871;29;20210;-82
